createdAt,value
2023-11-24T00:01:34.295Z,12.10
2023-11-24T00:04:00.934Z,12.10
2023-11-24T00:06:27.559Z,12.10
2023-11-24T00:08:54.096Z,12.10
2023-11-24T00:11:20.639Z,12.10
2023-11-24T00:13:47.232Z,12.10
2023-11-24T00:16:13.894Z,12.10
2023-11-24T00:18:40.473Z,12.10
2023-11-24T00:21:07.023Z,12.10
2023-11-24T00:23:33.543Z,12.00
2023-11-24T00:26:00.064Z,12.00
2023-11-24T00:28:26.585Z,12.10
2023-11-24T00:30:53.237Z,12.00
2023-11-24T00:33:20.085Z,12.00
2023-11-24T00:35:46.673Z,12.00
2023-11-24T00:38:13.221Z,11.90
2023-11-24T00:40:39.725Z,12.00
2023-11-24T00:43:06.299Z,11.90
2023-11-24T00:45:32.872Z,11.90
2023-11-24T00:47:59.483Z,11.90
2023-11-24T00:50:26.011Z,11.90
2023-11-24T00:52:52.561Z,11.90
2023-11-24T00:55:19.069Z,11.80
2023-11-24T00:57:45.620Z,11.90
2023-11-24T01:00:12.159Z,11.80
2023-11-24T01:02:38.794Z,11.90
2023-11-24T01:05:05.461Z,11.90
2023-11-24T01:07:31.993Z,11.90
2023-11-24T01:09:58.553Z,11.90
2023-11-24T01:12:25.124Z,11.90
2023-11-24T01:14:51.648Z,11.80
2023-11-24T01:17:18.267Z,11.90
2023-11-24T01:19:44.801Z,11.90
2023-11-24T01:22:11.344Z,11.90
2023-11-24T01:24:37.898Z,11.80
2023-11-24T01:27:04.444Z,11.90
2023-11-24T01:29:31.016Z,11.90
2023-11-24T01:31:57.566Z,11.80
2023-11-24T01:34:24.169Z,11.80
2023-11-24T01:36:50.859Z,11.70
2023-11-24T01:39:17.438Z,11.80
2023-11-24T01:41:43.969Z,11.80
2023-11-24T01:44:10.486Z,11.90
2023-11-24T01:46:37.076Z,11.80
2023-11-24T01:49:03.688Z,11.80
2023-11-24T01:51:30.292Z,11.90
2023-11-24T01:53:56.788Z,11.80
2023-11-24T01:56:23.327Z,11.80
2023-11-24T01:58:49.895Z,11.80
2023-11-24T02:01:16.434Z,11.80
2023-11-24T02:03:42.984Z,11.70
2023-11-24T02:06:09.515Z,11.80
2023-11-24T02:08:36.030Z,11.80
2023-11-24T02:11:02.562Z,11.70
2023-11-24T02:13:29.074Z,11.70
2023-11-24T02:15:57.801Z,11.70
2023-11-24T02:18:24.681Z,11.60
2023-11-24T02:20:51.273Z,11.60
2023-11-24T02:23:17.802Z,11.60
2023-11-24T02:25:44.344Z,11.60
2023-11-24T02:28:10.942Z,11.60
2023-11-24T02:30:37.586Z,11.60
2023-11-24T02:33:04.235Z,11.60
2023-11-24T02:35:30.758Z,11.60
2023-11-24T02:37:57.254Z,11.70
2023-11-24T02:40:23.769Z,11.60
2023-11-24T02:42:50.310Z,11.60
2023-11-24T02:45:16.830Z,11.70
2023-11-24T02:47:43.417Z,11.60
2023-11-24T02:50:10.008Z,11.60
2023-11-24T02:52:36.552Z,11.60
2023-11-24T02:55:03.333Z,11.60
2023-11-24T02:57:29.979Z,11.60
2023-11-24T02:59:56.555Z,11.60
2023-11-24T03:02:23.238Z,11.60
2023-11-24T03:04:49.845Z,11.60
2023-11-24T03:07:16.352Z,11.60
2023-11-24T03:09:42.893Z,11.60
2023-11-24T03:12:09.412Z,11.50
2023-11-24T03:14:35.945Z,11.50
2023-11-24T03:17:02.542Z,11.50
2023-11-24T03:19:29.114Z,11.50
2023-11-24T03:21:55.659Z,11.50
2023-11-24T03:24:22.215Z,11.50
2023-11-24T03:26:48.741Z,11.50
2023-11-24T03:29:15.251Z,11.60
2023-11-24T03:31:41.784Z,11.60
2023-11-24T03:34:08.431Z,11.60
2023-11-24T03:36:35.087Z,11.60
2023-11-24T03:39:01.643Z,11.50
2023-11-24T03:41:28.163Z,11.60
2023-11-24T03:43:54.688Z,11.60
2023-11-24T03:46:21.236Z,11.50
2023-11-24T03:48:47.768Z,11.60
2023-11-24T03:51:14.269Z,11.60
2023-11-24T03:53:40.807Z,11.70
2023-11-24T03:56:07.320Z,11.60
2023-11-24T03:58:33.838Z,11.60
2023-11-24T04:01:00.401Z,11.50
2023-11-24T04:03:27.022Z,11.50
2023-11-24T04:05:53.580Z,11.50
2023-11-24T04:08:20.096Z,11.40
2023-11-24T04:10:46.589Z,11.40
2023-11-24T04:13:13.104Z,11.50
2023-11-24T04:15:39.751Z,11.60
2023-11-24T04:18:06.386Z,11.60
2023-11-24T04:20:32.963Z,11.50
2023-11-24T04:22:59.496Z,11.50
2023-11-24T04:25:26.049Z,11.60
2023-11-24T04:27:52.613Z,11.50
2023-11-24T04:30:19.203Z,11.50
2023-11-24T04:32:45.815Z,11.50
2023-11-24T04:35:12.398Z,11.50
2023-11-24T04:37:38.910Z,11.40
2023-11-24T04:40:05.488Z,11.40
2023-11-24T04:42:32.048Z,11.50
2023-11-24T04:44:58.603Z,11.50
2023-11-24T04:47:25.177Z,11.50
2023-11-24T04:49:51.720Z,11.50
2023-11-24T04:52:18.239Z,11.50
2023-11-24T04:54:44.782Z,11.50
2023-11-24T04:57:11.311Z,11.40
2023-11-24T04:59:37.852Z,11.40
2023-11-24T05:02:04.425Z,11.40
2023-11-24T05:04:31.102Z,11.40
2023-11-24T05:06:57.735Z,11.40
2023-11-24T05:09:24.300Z,11.40
2023-11-24T05:11:50.808Z,11.40
2023-11-24T05:14:17.363Z,11.40
2023-11-24T05:16:43.898Z,11.40
2023-11-24T05:19:10.539Z,11.40
2023-11-24T05:21:37.087Z,11.40
2023-11-24T05:24:03.631Z,11.30
2023-11-24T05:26:30.143Z,11.30
2023-11-24T05:28:56.693Z,11.30
2023-11-24T05:31:25.554Z,11.30
2023-11-24T05:33:52.147Z,11.20
2023-11-24T05:36:18.692Z,11.20
2023-11-24T05:38:45.216Z,11.30
2023-11-24T05:41:11.733Z,11.20
2023-11-24T05:43:38.246Z,11.20
2023-11-24T05:46:04.893Z,11.30
2023-11-24T05:48:31.499Z,11.30
2023-11-24T05:50:58.041Z,11.30
2023-11-24T05:53:24.588Z,11.40
2023-11-24T05:55:51.121Z,11.30
2023-11-24T05:58:17.650Z,11.30
2023-11-24T06:00:44.234Z,11.30
2023-11-24T06:03:10.783Z,11.40
2023-11-24T06:05:37.366Z,11.30
2023-11-24T06:08:03.912Z,11.20
2023-11-24T06:10:30.444Z,11.30
2023-11-24T06:12:57.036Z,11.20
2023-11-24T06:15:23.574Z,11.20
2023-11-24T06:17:50.133Z,11.20
2023-11-24T06:20:16.682Z,11.30
2023-11-24T06:22:43.207Z,11.30
2023-11-24T06:25:11.068Z,11.40
2023-11-24T06:27:38.644Z,11.40
2023-11-24T06:30:05.182Z,11.30
2023-11-24T06:32:31.720Z,11.20
2023-11-24T06:34:58.307Z,11.30
2023-11-24T06:37:24.839Z,11.30
2023-11-24T06:39:51.489Z,11.30
2023-11-24T06:42:18.044Z,11.30
2023-11-24T06:44:44.579Z,11.30
2023-11-24T06:47:11.142Z,11.20
2023-11-24T06:49:37.677Z,11.30
2023-11-24T06:52:04.225Z,11.30
2023-11-24T06:54:30.934Z,11.30
2023-11-24T06:56:57.546Z,11.20
2023-11-24T06:59:24.060Z,11.30
2023-11-24T07:01:50.654Z,11.20
2023-11-24T07:04:17.447Z,11.20
2023-11-24T07:06:44.054Z,11.20
2023-11-24T07:09:12.998Z,11.20
2023-11-24T07:11:39.808Z,11.20
2023-11-24T07:14:06.343Z,11.20
2023-11-24T07:16:33.058Z,11.20
2023-11-24T07:18:59.785Z,11.10
2023-11-24T07:21:26.365Z,11.10
2023-11-24T07:23:52.882Z,11.20
2023-11-24T07:26:19.408Z,11.20
2023-11-24T07:28:45.926Z,11.20
2023-11-24T07:31:12.447Z,11.20
2023-11-24T07:33:39.006Z,11.20
2023-11-24T07:36:05.547Z,11.10
2023-11-24T07:38:32.046Z,11.20
2023-11-24T07:40:58.552Z,11.20
2023-11-24T07:43:25.072Z,11.20
2023-11-24T07:45:51.635Z,11.10
2023-11-24T07:48:18.206Z,11.00
2023-11-24T07:50:44.720Z,11.00
2023-11-24T07:53:11.244Z,11.00
2023-11-24T07:55:37.744Z,11.00
2023-11-24T07:58:04.501Z,11.00
2023-11-24T08:00:31.071Z,11.10
2023-11-24T08:02:57.669Z,11.10
2023-11-24T08:05:24.196Z,11.10
2023-11-24T08:07:50.710Z,11.10
2023-11-24T08:10:17.315Z,11.20
2023-11-24T08:12:43.873Z,11.10
2023-11-24T08:15:10.415Z,11.10
2023-11-24T08:17:36.972Z,11.00
2023-11-24T08:20:03.511Z,11.00
2023-11-24T08:22:30.026Z,11.00
2023-11-24T08:24:56.821Z,11.10
2023-11-24T08:27:23.412Z,11.10
2023-11-24T08:29:49.946Z,11.10
2023-11-24T08:32:16.470Z,11.10
2023-11-24T08:34:43.015Z,11.10
2023-11-24T08:37:09.531Z,11.10
2023-11-24T08:39:36.125Z,11.10
2023-11-24T08:42:02.673Z,11.20
2023-11-24T08:44:29.194Z,11.30
2023-11-24T08:46:55.806Z,11.20
2023-11-24T08:49:22.378Z,11.10
2023-11-24T08:51:48.923Z,11.20
2023-11-24T08:54:15.518Z,11.20
2023-11-24T08:56:42.056Z,11.20
2023-11-24T08:59:08.585Z,11.20
2023-11-24T09:01:35.205Z,11.20
2023-11-24T09:04:01.846Z,11.20
2023-11-24T09:06:28.430Z,11.10
2023-11-24T09:08:54.946Z,11.20
2023-11-24T09:11:21.474Z,11.20
2023-11-24T09:13:49.705Z,11.20
2023-11-24T09:16:16.483Z,11.20
2023-11-24T09:18:43.079Z,11.10
2023-11-24T09:21:09.598Z,11.10
2023-11-24T09:23:36.468Z,11.10
2023-11-24T09:26:02.992Z,11.10
2023-11-24T09:28:29.528Z,11.20
2023-11-24T09:30:56.092Z,11.20
2023-11-24T09:33:22.668Z,11.10
2023-11-24T09:35:49.155Z,11.20
2023-11-24T09:38:19.759Z,11.10
2023-11-24T09:40:46.279Z,11.10
2023-11-24T09:43:12.820Z,11.10
2023-11-24T09:45:39.386Z,11.00
2023-11-24T09:48:05.925Z,11.00
2023-11-24T09:50:32.471Z,10.90
2023-11-24T09:52:58.980Z,11.00
2023-11-24T09:55:27.490Z,11.00
2023-11-24T09:57:54.805Z,11.10
2023-11-24T10:00:21.324Z,11.10
2023-11-24T10:02:47.888Z,11.00
2023-11-24T10:05:14.435Z,11.00
2023-11-24T10:07:40.946Z,11.00
2023-11-24T10:10:07.504Z,11.00
2023-11-24T10:12:34.012Z,11.00
2023-11-24T10:15:00.534Z,10.90
2023-11-24T10:17:27.113Z,11.00
2023-11-24T10:19:53.635Z,11.00
2023-11-24T10:22:20.211Z,11.00
2023-11-24T10:24:46.775Z,11.00
2023-11-24T10:27:13.332Z,11.00
2023-11-24T10:29:39.843Z,11.00
2023-11-24T10:32:06.357Z,11.00
2023-11-24T10:34:32.950Z,11.00
2023-11-24T10:36:59.549Z,11.10
2023-11-24T10:39:26.085Z,11.10
2023-11-24T10:41:52.608Z,11.10
2023-11-24T10:44:19.123Z,11.00
2023-11-24T10:46:45.729Z,10.90
2023-11-24T10:49:12.267Z,11.00
2023-11-24T10:51:38.812Z,11.00
2023-11-24T10:54:05.347Z,11.10
2023-11-24T10:56:31.877Z,11.10
2023-11-24T10:58:58.389Z,11.00
2023-11-24T11:01:24.999Z,11.00
2023-11-24T11:03:51.682Z,10.90
2023-11-24T11:06:18.227Z,10.90
2023-11-24T11:08:44.733Z,10.90
2023-11-24T11:11:11.275Z,10.90
2023-11-24T11:13:37.792Z,10.90
2023-11-24T11:16:04.332Z,10.80
2023-11-24T11:18:30.859Z,10.80
2023-11-24T11:20:57.388Z,10.90
2023-11-24T11:23:23.894Z,11.00
2023-11-24T11:25:50.407Z,10.80
2023-11-24T11:28:17.012Z,10.90
2023-11-24T11:30:43.605Z,10.90
2023-11-24T11:33:10.179Z,10.90
2023-11-24T11:35:36.730Z,10.90
2023-11-24T11:38:03.244Z,10.90
2023-11-24T11:40:29.766Z,10.80
2023-11-24T11:42:56.324Z,10.80
2023-11-24T11:45:22.844Z,10.80
2023-11-24T11:47:49.365Z,10.90
2023-11-24T11:50:15.879Z,11.00
2023-11-24T11:52:42.478Z,10.80
2023-11-24T11:55:09.054Z,10.80
2023-11-24T11:57:35.576Z,10.80
2023-11-24T12:00:02.098Z,10.80
2023-11-24T12:02:28.677Z,10.80
2023-11-24T12:04:55.272Z,10.80
2023-11-24T12:07:21.961Z,10.90
2023-11-24T12:09:48.788Z,10.80
2023-11-24T12:12:15.552Z,10.80
2023-11-24T12:14:42.074Z,10.80
2023-11-24T12:17:08.700Z,10.90
2023-11-24T12:19:37.383Z,10.80
2023-11-24T12:22:05.242Z,10.80
2023-11-24T12:24:31.773Z,10.90
2023-11-24T12:26:58.288Z,10.80
2023-11-24T12:29:24.833Z,10.90
2023-11-24T12:31:51.571Z,10.90
2023-11-24T12:34:18.221Z,11.00
2023-11-24T12:36:44.839Z,10.90
2023-11-24T12:39:11.370Z,10.80
2023-11-24T12:41:37.927Z,10.80
2023-11-24T12:44:04.459Z,10.80
2023-11-24T12:46:31.020Z,10.80
2023-11-24T12:48:57.583Z,10.80
2023-11-24T12:51:24.112Z,10.80
2023-11-24T12:53:50.648Z,10.80
2023-11-24T12:56:17.158Z,10.70
2023-11-24T12:58:43.673Z,10.80
2023-11-24T13:01:11.549Z,10.80
2023-11-24T13:03:38.411Z,10.80
2023-11-24T13:06:04.967Z,10.80
2023-11-24T13:08:31.496Z,10.80
2023-11-24T13:10:58.034Z,10.70
2023-11-24T13:13:24.553Z,10.60
2023-11-24T13:15:51.174Z,10.60
2023-11-24T13:18:17.766Z,10.70
2023-11-24T13:20:44.311Z,10.70
2023-11-24T13:23:10.856Z,10.60
2023-11-24T13:25:38.161Z,10.70
2023-11-24T13:28:04.833Z,10.80
2023-11-24T13:30:31.363Z,10.70
2023-11-24T13:32:57.979Z,10.70
2023-11-24T13:35:24.578Z,10.70
2023-11-24T13:37:51.438Z,10.70
2023-11-24T13:40:18.129Z,10.70
2023-11-24T13:42:44.735Z,10.70
2023-11-24T13:45:11.272Z,10.70
2023-11-24T13:47:37.813Z,10.70
2023-11-24T13:50:04.345Z,10.70
2023-11-24T13:52:30.923Z,10.80
2023-11-24T13:54:57.462Z,10.80
2023-11-24T13:57:23.984Z,10.70
2023-11-24T13:59:50.510Z,10.60
2023-11-24T14:02:17.231Z,10.60
2023-11-24T14:04:43.880Z,10.60
2023-11-24T14:07:10.406Z,10.60
2023-11-24T14:09:36.930Z,10.60
2023-11-24T14:12:03.441Z,10.60
2023-11-24T14:14:30.353Z,10.60
2023-11-24T14:16:57.221Z,10.60
2023-11-24T14:19:23.814Z,10.50
2023-11-24T14:21:50.401Z,10.50
2023-11-24T14:24:16.946Z,10.50
2023-11-24T14:26:43.450Z,10.60
2023-11-24T14:29:09.962Z,10.60
2023-11-24T14:31:36.555Z,10.70
2023-11-24T14:34:03.160Z,10.70
2023-11-24T14:36:29.749Z,10.50
2023-11-24T14:38:56.292Z,10.60
2023-11-24T14:41:22.846Z,10.60
2023-11-24T14:43:49.370Z,10.60
2023-11-24T14:46:17.066Z,10.60
2023-11-24T14:48:44.990Z,10.60
2023-11-24T14:51:11.542Z,10.50
2023-11-24T14:53:38.091Z,10.50
2023-11-24T14:56:04.609Z,10.40
2023-11-24T14:58:31.121Z,10.50
2023-11-24T15:00:57.681Z,10.40
2023-11-24T15:03:24.219Z,10.50
2023-11-24T15:05:50.735Z,10.30
2023-11-24T15:08:17.261Z,10.40
2023-11-24T15:10:43.810Z,10.40
2023-11-24T15:13:10.461Z,10.50
2023-11-24T15:15:37.007Z,10.50
2023-11-24T15:18:03.560Z,10.50
2023-11-24T15:20:30.092Z,10.50
2023-11-24T15:22:56.611Z,10.50
2023-11-24T15:25:23.162Z,10.40
2023-11-24T15:27:49.715Z,10.40
2023-11-24T15:30:16.243Z,10.40
2023-11-24T15:32:42.803Z,10.40
2023-11-24T15:35:09.369Z,10.40
2023-11-24T15:37:35.889Z,10.40
2023-11-24T15:40:02.461Z,10.40
2023-11-24T15:42:29.013Z,10.40
2023-11-24T15:44:55.513Z,10.40
2023-11-24T15:47:22.076Z,10.50
2023-11-24T15:49:48.619Z,10.40
2023-11-24T15:52:15.804Z,10.40
2023-11-24T15:54:42.494Z,10.40
2023-11-24T15:57:09.015Z,10.40
2023-11-24T15:59:37.592Z,10.40
2023-11-24T16:02:05.046Z,10.40
2023-11-24T16:04:31.833Z,10.40
2023-11-24T16:06:58.343Z,10.40
2023-11-24T16:09:24.910Z,10.40
2023-11-24T16:11:51.425Z,10.40
2023-11-24T16:14:17.934Z,10.30
2023-11-24T16:16:47.026Z,10.30
2023-11-24T16:19:13.876Z,10.30
2023-11-24T16:21:40.402Z,10.30
2023-11-24T16:24:06.918Z,10.40
2023-11-24T16:26:33.405Z,10.30
2023-11-24T16:28:59.919Z,10.50
2023-11-24T16:31:26.490Z,10.50
2023-11-24T16:33:53.058Z,10.40
2023-11-24T16:36:19.601Z,10.40
2023-11-24T16:38:46.122Z,10.30
2023-11-24T16:41:12.634Z,10.30
2023-11-24T16:43:39.171Z,10.30
2023-11-24T16:46:05.722Z,10.30
2023-11-24T16:48:32.303Z,10.30
2023-11-24T16:50:58.826Z,10.30
2023-11-24T16:53:25.329Z,10.30
2023-11-24T16:55:51.842Z,10.30
2023-11-24T16:58:18.394Z,10.30
2023-11-24T17:00:44.915Z,10.30
2023-11-24T17:03:11.564Z,10.20
2023-11-24T17:05:38.155Z,10.20
2023-11-24T17:08:04.709Z,10.20
2023-11-24T17:10:31.259Z,10.30
2023-11-24T17:12:57.834Z,10.30
2023-11-24T17:15:24.420Z,10.30
2023-11-24T17:17:51.006Z,10.20
2023-11-24T17:20:17.579Z,10.20
2023-11-24T17:22:44.104Z,10.10
2023-11-24T17:25:10.689Z,10.20
2023-11-24T17:27:37.225Z,10.20
2023-11-24T17:30:03.759Z,10.20
2023-11-24T17:32:30.300Z,10.00
2023-11-24T17:34:56.841Z,10.00
2023-11-24T17:37:23.392Z,10.10
2023-11-24T17:39:49.981Z,10.20
2023-11-24T17:42:16.526Z,10.20
2023-11-24T17:44:43.086Z,10.10
2023-11-24T17:47:09.633Z,10.20
2023-11-24T17:49:36.218Z,10.10
2023-11-24T17:52:02.786Z,10.10
2023-11-24T17:54:29.387Z,10.10
2023-11-24T17:56:55.888Z,10.10
2023-11-24T17:59:22.444Z,10.20
2023-11-24T18:01:49.094Z,10.10
2023-11-24T18:04:15.773Z,10.00
2023-11-24T18:06:42.293Z,10.00
2023-11-24T18:09:08.792Z,10.00
2023-11-24T18:11:35.355Z,10.00
2023-11-24T18:14:01.995Z,9.90
2023-11-24T18:16:28.587Z,10.00
2023-11-24T18:18:55.210Z,10.00
2023-11-24T18:21:21.730Z,10.00
2023-11-24T18:23:48.256Z,10.10
2023-11-24T18:26:14.781Z,10.10
2023-11-24T18:28:41.271Z,10.20
2023-11-24T18:31:07.852Z,10.20
2023-11-24T18:33:34.440Z,10.20
2023-11-24T18:36:00.931Z,10.20
2023-11-24T18:38:27.431Z,10.30
2023-11-24T18:40:55.038Z,10.20
2023-11-24T18:43:30.650Z,10.20
2023-11-24T18:46:03.648Z,10.20
2023-11-24T18:48:30.304Z,10.20
2023-11-24T18:50:56.852Z,10.10
2023-11-24T18:53:23.352Z,10.00
2023-11-24T18:55:49.883Z,10.10
2023-11-24T18:58:16.455Z,10.20
2023-11-24T19:00:43.041Z,10.10
2023-11-24T19:03:09.662Z,10.10
2023-11-24T19:05:36.217Z,10.20
2023-11-24T19:08:02.748Z,10.20
2023-11-24T19:10:29.349Z,10.20
2023-11-24T19:12:55.933Z,10.10
2023-11-24T19:15:26.220Z,10.10
2023-11-24T19:17:52.770Z,10.00
2023-11-24T19:20:19.317Z,10.10
2023-11-24T19:22:45.832Z,10.00
2023-11-24T19:25:12.395Z,10.00
2023-11-24T19:27:38.949Z,10.00
2023-11-24T19:30:05.484Z,10.10
2023-11-24T19:32:32.079Z,10.00
2023-11-24T19:34:58.638Z,10.10
2023-11-24T19:37:25.220Z,10.00
2023-11-24T19:39:51.788Z,10.10
2023-11-24T19:42:21.467Z,10.20
2023-11-24T19:44:49.121Z,9.90
2023-11-24T19:47:15.630Z,9.90
2023-11-24T19:49:42.180Z,9.90
2023-11-24T19:52:08.765Z,10.00
2023-11-24T19:54:35.298Z,9.90
2023-11-24T19:57:01.827Z,9.90
2023-11-24T19:59:28.374Z,10.00
2023-11-24T20:01:54.954Z,9.90
2023-11-24T20:04:21.639Z,9.90
2023-11-24T20:06:48.160Z,9.90
2023-11-24T20:09:14.692Z,9.90
2023-11-24T20:11:41.222Z,10.00
2023-11-24T20:14:07.759Z,10.00
2023-11-24T20:16:34.332Z,10.00
2023-11-24T20:19:00.956Z,10.00
2023-11-24T20:21:28.382Z,10.00
2023-11-24T20:23:54.941Z,10.10
2023-11-24T20:26:21.456Z,10.00
2023-11-24T20:28:47.993Z,10.10
2023-11-24T20:31:14.553Z,10.10
2023-11-24T20:33:41.145Z,10.00
2023-11-24T20:36:07.678Z,10.00
2023-11-24T20:38:34.226Z,10.10
2023-11-24T20:41:00.747Z,10.10
2023-11-24T20:43:27.285Z,10.20
2023-11-24T20:45:53.862Z,10.30
2023-11-24T20:48:20.400Z,10.20
2023-11-24T20:50:46.916Z,10.30
2023-11-24T20:53:13.412Z,10.30
2023-11-24T20:55:39.976Z,10.30
2023-11-24T20:58:06.534Z,10.30
2023-11-24T21:00:34.681Z,10.30
2023-11-24T21:03:02.371Z,10.20
2023-11-24T21:05:28.939Z,10.20
2023-11-24T21:07:55.463Z,10.20
2023-11-24T21:10:21.980Z,10.20
2023-11-24T21:12:48.491Z,10.20
2023-11-24T21:15:15.002Z,10.10
2023-11-24T21:17:41.608Z,10.20
2023-11-24T21:20:08.191Z,10.30
2023-11-24T21:22:34.804Z,10.30
2023-11-24T21:25:01.388Z,10.10
2023-11-24T21:27:27.898Z,10.20
2023-11-24T21:29:54.410Z,10.20
2023-11-24T21:32:20.923Z,10.20
2023-11-24T21:34:47.492Z,10.30
2023-11-24T21:37:14.045Z,10.30
2023-11-24T21:39:40.594Z,10.30
2023-11-24T21:42:07.097Z,10.30
2023-11-24T21:44:33.639Z,10.30
2023-11-24T21:47:00.328Z,10.30
2023-11-24T21:49:26.955Z,10.20
2023-11-24T21:51:53.471Z,10.20
2023-11-24T21:54:19.983Z,10.10
2023-11-24T21:56:46.498Z,10.20
2023-11-24T21:59:13.015Z,10.10
2023-11-24T22:01:39.700Z,10.20
2023-11-24T22:04:06.428Z,10.20
2023-11-24T22:06:32.995Z,10.20
2023-11-24T22:08:59.530Z,10.20
2023-11-24T22:11:26.067Z,10.30
2023-11-24T22:13:52.602Z,10.30
2023-11-24T22:16:19.192Z,10.30
2023-11-24T22:18:45.758Z,10.30
2023-11-24T22:21:12.271Z,10.30
2023-11-24T22:23:38.799Z,10.30
2023-11-24T22:26:05.350Z,10.20
2023-11-24T22:28:31.934Z,10.20
2023-11-24T22:30:58.520Z,10.30
2023-11-24T22:33:25.084Z,10.30
2023-11-24T22:35:51.585Z,10.30
2023-11-24T22:38:18.113Z,10.30
2023-11-24T22:40:44.686Z,10.20
2023-11-24T22:43:11.244Z,10.30
2023-11-24T22:45:37.776Z,10.30
2023-11-24T22:48:04.377Z,10.30
2023-11-24T22:50:30.916Z,10.30
2023-11-24T22:52:57.442Z,10.30
2023-11-24T22:55:24.055Z,10.30
2023-11-24T22:57:50.615Z,10.30
2023-11-24T23:00:17.134Z,10.40
2023-11-24T23:02:43.779Z,10.40
2023-11-24T23:05:10.331Z,10.30
2023-11-24T23:07:36.951Z,10.30
2023-11-24T23:10:03.526Z,10.30
2023-11-24T23:12:30.060Z,10.30
2023-11-24T23:14:56.557Z,10.30
2023-11-24T23:17:23.109Z,10.40
2023-11-24T23:19:49.639Z,10.30
2023-11-24T23:22:27.205Z,10.30
2023-11-24T23:25:01.258Z,10.20
2023-11-24T23:27:27.856Z,10.20
2023-11-24T23:29:54.396Z,10.20
2023-11-24T23:32:20.968Z,10.20
2023-11-24T23:34:47.504Z,10.20
2023-11-24T23:37:14.049Z,10.20
2023-11-24T23:39:40.592Z,10.20
2023-11-24T23:42:07.120Z,10.20
2023-11-24T23:44:33.637Z,10.20
2023-11-24T23:47:00.262Z,10.30
2023-11-24T23:49:26.829Z,10.30
2023-11-24T23:51:53.334Z,10.20
2023-11-24T23:54:19.851Z,10.20
2023-11-24T23:56:46.376Z,10.30
2023-11-24T23:59:12.887Z,10.30
